createdAt,value
2019-05-29T00:00:38.182Z,75.04
2019-05-29T00:03:08.294Z,74.99
2019-05-29T00:05:37.723Z,75.35
2019-05-29T00:08:08.117Z,75.21
2019-05-29T00:10:37.533Z,75.50
2019-05-29T00:13:06.830Z,75.54
2019-05-29T00:15:36.085Z,75.35
2019-05-29T00:18:06.288Z,75.00
2019-05-29T00:20:35.606Z,75.63
2019-05-29T00:23:04.895Z,75.51
2019-05-29T00:25:34.184Z,76.22
2019-05-29T00:28:04.012Z,76.25
2019-05-29T00:30:33.365Z,76.60
2019-05-29T00:33:04.458Z,76.60
2019-05-29T00:35:33.756Z,76.35
2019-05-29T00:38:03.124Z,76.38
2019-05-29T00:40:32.524Z,76.77
2019-05-29T00:43:01.841Z,76.78
2019-05-29T00:45:32.172Z,76.70
2019-05-29T00:48:01.437Z,76.83
2019-05-29T00:50:30.737Z,76.76
2019-05-29T00:53:00.039Z,76.81
2019-05-29T00:55:29.302Z,76.63
2019-05-29T00:57:58.596Z,77.05
2019-05-29T01:00:29.698Z,77.21
2019-05-29T01:02:58.967Z,77.58
2019-05-29T01:05:28.244Z,77.01
2019-05-29T01:07:57.539Z,77.38
2019-05-29T01:10:26.839Z,77.26
2019-05-29T01:12:56.977Z,77.27
2019-05-29T01:15:26.490Z,77.15
2019-05-29T01:17:55.734Z,77.83
2019-05-29T01:20:25.026Z,77.42
2019-05-29T01:22:55.701Z,77.60
2019-05-29T01:25:24.981Z,77.82
2019-05-29T01:27:54.249Z,77.63
2019-05-29T01:30:23.510Z,77.30
2019-05-29T01:32:52.831Z,77.39
2019-05-29T01:35:30.425Z,77.70
2019-05-29T01:37:59.685Z,77.73
2019-05-29T01:40:29.663Z,78.21
2019-05-29T01:42:59.449Z,78.25
2019-05-29T01:45:28.734Z,78.17
2019-05-29T01:47:58.024Z,78.18
2019-05-29T01:50:27.922Z,78.17
2019-05-29T01:52:57.284Z,77.85
2019-05-29T01:55:26.554Z,77.69
2019-05-29T01:57:55.842Z,77.95
2019-05-29T02:00:25.336Z,78.05
2019-05-29T02:02:54.610Z,77.40
2019-05-29T02:05:24.174Z,78.54
2019-05-29T02:07:55.373Z,78.12
2019-05-29T02:10:24.632Z,78.15
2019-05-29T02:12:54.999Z,78.34
2019-05-29T02:15:32.022Z,77.97
2019-05-29T02:17:55.479Z,78.20
2019-05-29T02:20:25.351Z,78.35
2019-05-29T02:22:54.691Z,78.36
2019-05-29T02:25:26.355Z,78.51
2019-05-29T02:27:55.733Z,78.31
2019-05-29T02:30:30.289Z,78.11
2019-05-29T02:32:57.216Z,78.92
2019-05-29T02:35:28.783Z,79.10
2019-05-29T02:37:57.500Z,78.71
2019-05-29T02:40:28.501Z,78.26
2019-05-29T02:42:57.761Z,78.31
2019-05-29T02:45:50.868Z,77.83
2019-05-29T02:47:58.047Z,78.17
2019-05-29T02:50:29.336Z,78.37
2019-05-29T02:52:58.360Z,77.84
2019-05-29T02:55:28.896Z,77.96
2019-05-29T02:57:58.472Z,78.94
2019-05-29T03:00:53.445Z,78.99
2019-05-29T03:03:26.171Z,78.86
2019-05-29T03:05:55.832Z,78.05
2019-05-29T03:08:26.900Z,77.98
2019-05-29T03:10:56.083Z,78.12
2019-05-29T03:13:27.138Z,78.02
2019-05-29T03:16:09.895Z,78.01
2019-05-29T03:18:28.047Z,77.90
2019-05-29T03:20:58.675Z,77.70
2019-05-29T03:23:29.111Z,79.64
2019-05-29T03:25:59.431Z,78.11
2019-05-29T03:28:29.990Z,79.32
2019-05-29T03:30:59.647Z,79.56
2019-05-29T03:33:36.048Z,80.86
2019-05-29T03:35:59.940Z,79.97
2019-05-29T03:38:30.264Z,80.56
2019-05-29T03:40:59.673Z,79.63
2019-05-29T03:43:33.615Z,79.27
2019-05-29T03:46:02.761Z,80.30
2019-05-29T03:48:32.794Z,80.32
2019-05-29T03:51:03.102Z,79.83
2019-05-29T03:53:33.859Z,79.58
2019-05-29T03:56:03.448Z,79.27
2019-05-29T03:58:35.179Z,79.30
2019-05-29T04:01:04.779Z,78.91
2019-05-29T04:03:35.709Z,79.51
2019-05-29T04:06:05.556Z,79.57
2019-05-29T04:08:35.705Z,79.06
2019-05-29T04:11:06.094Z,79.01
2019-05-29T04:13:36.246Z,79.37
2019-05-29T04:16:06.565Z,79.27
2019-05-29T04:18:38.081Z,79.91
2019-05-29T04:21:08.707Z,79.34
2019-05-29T04:23:40.429Z,78.79
2019-05-29T04:26:12.960Z,78.61
2019-05-29T04:28:42.272Z,79.69
2019-05-29T04:31:13.160Z,79.83
2019-05-29T04:33:42.466Z,79.00
2019-05-29T04:36:11.729Z,78.29
2019-05-29T04:38:41.003Z,78.62
2019-05-29T04:41:10.273Z,78.02
2019-05-29T04:43:40.019Z,78.29
2019-05-29T04:46:09.414Z,77.71
2019-05-29T04:48:40.401Z,77.75
2019-05-29T04:51:09.799Z,77.90
2019-05-29T04:53:40.250Z,77.80
2019-05-29T04:56:09.494Z,77.27
2019-05-29T04:58:39.066Z,77.22
2019-05-29T05:01:08.488Z,76.77
2019-05-29T05:03:39.445Z,76.30
2019-05-29T05:06:09.587Z,75.59
2019-05-29T05:08:40.168Z,76.95
2019-05-29T05:11:11.451Z,77.45
2019-05-29T05:13:41.336Z,78.01
2019-05-29T05:16:12.951Z,77.71
2019-05-29T05:18:42.787Z,76.48
2019-05-29T05:21:13.167Z,76.67
2019-05-29T05:23:42.888Z,76.04
2019-05-29T05:26:12.329Z,75.92
2019-05-29T05:28:44.695Z,75.83
2019-05-29T05:31:13.194Z,75.71
2019-05-29T05:33:42.660Z,75.56
2019-05-29T05:36:13.145Z,76.31
2019-05-29T05:38:42.439Z,75.89
2019-05-29T05:41:12.284Z,74.66
2019-05-29T05:43:41.977Z,74.17
2019-05-29T05:46:11.725Z,74.23
2019-05-29T05:48:41.720Z,73.93
2019-05-29T05:51:11.485Z,74.20
2019-05-29T05:53:41.713Z,74.50
2019-05-29T05:56:11.267Z,74.07
2019-05-29T05:58:41.969Z,73.47
2019-05-29T06:01:11.801Z,74.18
2019-05-29T06:03:42.533Z,74.29
2019-05-29T06:06:12.074Z,74.28
2019-05-29T06:08:42.532Z,72.81
2019-05-29T06:11:13.310Z,73.08
2019-05-29T06:13:42.905Z,73.45
2019-05-29T06:16:12.237Z,74.31
2019-05-29T06:18:42.771Z,74.02
2019-05-29T06:21:12.491Z,74.21
2019-05-29T06:23:43.184Z,73.14
2019-05-29T06:26:12.874Z,73.16
2019-05-29T06:28:43.334Z,73.40
2019-05-29T06:31:14.612Z,73.30
2019-05-29T06:33:44.237Z,72.92
2019-05-29T06:36:13.735Z,71.94
2019-05-29T06:38:44.268Z,72.46
2019-05-29T06:41:13.907Z,71.97
2019-05-29T06:43:44.367Z,71.45
2019-05-29T06:46:14.041Z,71.42
2019-05-29T06:48:57.560Z,71.14
2019-05-29T06:51:14.318Z,70.50
2019-05-29T06:53:44.115Z,69.62
2019-05-29T06:56:13.577Z,69.92
2019-05-29T06:58:44.168Z,70.05
2019-05-29T07:01:15.201Z,71.18
2019-05-29T07:03:44.460Z,71.04
2019-05-29T07:06:13.737Z,71.74
2019-05-29T07:08:46.485Z,72.99
2019-05-29T07:11:13.992Z,72.21
2019-05-29T07:13:47.071Z,72.62
2019-05-29T07:16:14.297Z,72.08
2019-05-29T07:19:20.447Z,72.30
2019-05-29T07:21:14.614Z,71.49
2019-05-29T07:23:45.144Z,70.47
2019-05-29T07:26:14.920Z,70.84
2019-05-29T07:29:02.091Z,71.88
2019-05-29T07:31:15.209Z,71.20
2019-05-29T07:33:45.259Z,70.05
2019-05-29T07:36:14.656Z,69.76
2019-05-29T07:38:53.811Z,68.67
2019-05-29T07:41:16.046Z,67.91
2019-05-29T07:43:45.892Z,67.49
2019-05-29T07:46:15.314Z,66.99
2019-05-29T07:48:47.443Z,67.60
2019-05-29T07:51:15.617Z,66.59
2019-05-29T07:53:45.093Z,65.90
2019-05-29T07:56:22.790Z,64.22
2019-05-29T07:58:56.720Z,62.58
2019-05-29T08:01:17.364Z,60.39
2019-05-29T08:03:47.420Z,60.09
2019-05-29T08:06:16.966Z,61.29
2019-05-29T08:08:47.366Z,60.73
2019-05-29T08:11:16.760Z,60.80
2019-05-29T08:13:46.010Z,61.14
2019-05-29T08:16:15.340Z,61.34
2019-05-29T08:18:47.259Z,61.30
2019-05-29T08:21:15.734Z,61.91
2019-05-29T08:23:46.329Z,61.82
2019-05-29T08:26:15.762Z,62.20
2019-05-29T08:28:45.073Z,60.76
2019-05-29T08:31:14.338Z,60.92
2019-05-29T08:33:44.805Z,60.62
2019-05-29T08:36:14.179Z,59.60
2019-05-29T08:38:44.538Z,59.52
2019-05-29T08:41:14.504Z,58.41
2019-05-29T08:43:45.202Z,58.30
2019-05-29T08:46:14.762Z,58.49
2019-05-29T08:48:44.055Z,59.28
2019-05-29T08:51:13.308Z,59.54
2019-05-29T08:53:43.776Z,59.35
2019-05-29T08:56:13.387Z,58.87
2019-05-29T08:58:42.940Z,57.42
2019-05-29T09:01:12.551Z,56.20
2019-05-29T09:03:42.815Z,56.13
2019-05-29T09:06:13.691Z,56.84
2019-05-29T09:08:43.821Z,57.62
2019-05-29T09:11:14.155Z,57.65
2019-05-29T09:13:43.437Z,58.96
2019-05-29T09:16:12.752Z,59.69
2019-05-29T09:18:42.048Z,60.55
2019-05-29T09:21:13.772Z,60.03
2019-05-29T09:23:42.359Z,61.67
2019-05-29T09:26:17.655Z,62.37
2019-05-29T09:28:42.658Z,63.01
2019-05-29T09:31:11.934Z,63.71
2019-05-29T09:33:41.251Z,63.42
2019-05-29T09:36:10.629Z,63.46
2019-05-29T09:38:39.924Z,63.17
2019-05-29T09:41:09.195Z,62.65
2019-05-29T09:43:38.451Z,62.29
2019-05-29T09:46:07.790Z,62.57
2019-05-29T09:48:49.095Z,62.80
2019-05-29T09:51:20.633Z,62.43
2019-05-29T09:53:39.092Z,62.41
2019-05-29T09:56:08.356Z,63.28
2019-05-29T09:58:37.706Z,63.26
2019-05-29T10:01:22.297Z,63.45
2019-05-29T10:03:37.971Z,63.08
2019-05-29T10:06:09.463Z,62.30
2019-05-29T10:08:38.240Z,61.61
2019-05-29T10:11:10.693Z,61.32
2019-05-29T10:13:39.958Z,61.49
2019-05-29T10:16:09.255Z,60.95
2019-05-29T10:18:38.524Z,59.39
2019-05-29T10:21:07.809Z,59.02
2019-05-29T10:23:37.225Z,59.54
2019-05-29T10:26:07.894Z,60.08
2019-05-29T10:28:49.897Z,60.89
2019-05-29T10:31:08.256Z,61.38
2019-05-29T10:33:37.567Z,61.59
2019-05-29T10:36:08.364Z,61.06
2019-05-29T10:38:37.630Z,61.34
2019-05-29T10:41:07.498Z,60.77
2019-05-29T10:43:36.962Z,60.96
2019-05-29T10:46:06.448Z,60.51
2019-05-29T10:48:35.770Z,60.21
2019-05-29T10:51:05.089Z,57.91
2019-05-29T10:53:34.373Z,57.98
2019-05-29T10:56:03.659Z,56.67
2019-05-29T10:58:48.045Z,56.45
2019-05-29T11:01:03.966Z,56.41
2019-05-29T11:03:33.294Z,54.60
2019-05-29T11:06:02.800Z,54.45
2019-05-29T11:08:32.078Z,53.91
2019-05-29T11:11:01.350Z,55.49
2019-05-29T11:13:30.650Z,54.26
2019-05-29T11:15:59.966Z,53.61
2019-05-29T11:18:29.248Z,54.32
2019-05-29T11:20:58.580Z,54.17
2019-05-29T11:23:27.948Z,55.59
2019-05-29T11:25:58.208Z,55.78
2019-05-29T11:28:27.572Z,55.25
2019-05-29T11:30:57.222Z,53.85
2019-05-29T11:33:26.567Z,52.96
2019-05-29T11:36:07.405Z,52.88
2019-05-29T11:38:26.842Z,52.66
2019-05-29T11:41:19.418Z,53.45
2019-05-29T11:43:27.636Z,53.46
2019-05-29T11:45:57.387Z,54.48
2019-05-29T11:48:26.750Z,54.35
2019-05-29T11:50:56.221Z,55.44
2019-05-29T11:53:25.591Z,55.73
2019-05-29T11:55:55.829Z,54.61
2019-05-29T11:58:31.042Z,54.39
2019-05-29T12:00:57.176Z,54.80
2019-05-29T12:03:26.545Z,55.70
2019-05-29T12:05:57.605Z,56.36
2019-05-29T12:08:27.035Z,56.28
2019-05-29T12:10:58.117Z,57.02
2019-05-29T12:13:27.707Z,56.77
2019-05-29T12:15:59.726Z,55.30
2019-05-29T12:18:28.973Z,55.09
2019-05-29T12:20:58.667Z,54.80
2019-05-29T12:23:28.224Z,54.50
2019-05-29T12:26:16.622Z,55.25
2019-05-29T12:28:28.520Z,55.51
2019-05-29T12:30:59.045Z,55.90
2019-05-29T12:33:28.412Z,55.38
2019-05-29T12:35:59.026Z,55.95
2019-05-29T12:38:28.469Z,56.41
2019-05-29T12:40:57.857Z,55.26
2019-05-29T12:43:28.237Z,54.71
2019-05-29T12:45:57.890Z,54.31
2019-05-29T12:48:27.272Z,53.92
2019-05-29T12:50:58.298Z,52.96
2019-05-29T12:53:30.931Z,53.77
2019-05-29T12:56:00.332Z,52.27
2019-05-29T12:58:29.703Z,51.83
2019-05-29T13:01:00.525Z,50.73
2019-05-29T13:03:30.032Z,49.94
2019-05-29T13:06:00.400Z,48.93
2019-05-29T13:08:29.762Z,48.54
2019-05-29T13:10:59.024Z,47.83
2019-05-29T13:13:28.410Z,47.42
2019-05-29T13:15:58.757Z,46.01
2019-05-29T13:18:28.167Z,45.29
2019-05-29T13:20:57.430Z,45.32
2019-05-29T13:23:26.737Z,44.76
2019-05-29T13:25:56.030Z,45.14
2019-05-29T13:28:25.347Z,45.98
2019-05-29T13:30:55.710Z,45.51
2019-05-29T13:33:26.067Z,45.22
2019-05-29T13:35:56.289Z,45.30
2019-05-29T13:38:25.602Z,45.62
2019-05-29T13:40:56.138Z,46.79
2019-05-29T13:43:25.535Z,47.94
2019-05-29T13:45:54.846Z,48.27
2019-05-29T13:48:24.138Z,48.31
2019-05-29T13:50:53.424Z,49.06
2019-05-29T13:53:22.698Z,49.08
2019-05-29T13:55:53.503Z,49.70
2019-05-29T13:58:26.007Z,50.47
2019-05-29T14:00:55.352Z,50.85
2019-05-29T14:03:24.609Z,50.28
2019-05-29T14:05:53.884Z,50.23
2019-05-29T14:08:23.182Z,50.92
2019-05-29T14:10:52.578Z,50.68
2019-05-29T14:13:21.863Z,51.03
2019-05-29T14:15:51.179Z,51.06
2019-05-29T14:18:20.484Z,51.91
2019-05-29T14:20:49.759Z,52.27
2019-05-29T14:23:19.054Z,51.77
2019-05-29T14:25:48.332Z,51.15
2019-05-29T14:28:17.713Z,51.41
2019-05-29T14:30:46.962Z,51.84
2019-05-29T14:33:16.470Z,51.23
2019-05-29T14:35:45.939Z,51.26
2019-05-29T14:38:15.388Z,52.13
2019-05-29T14:40:44.686Z,52.73
2019-05-29T14:43:15.658Z,53.51
2019-05-29T14:45:45.146Z,53.73
2019-05-29T14:48:14.400Z,54.15
2019-05-29T14:50:43.739Z,53.64
2019-05-29T14:53:13.618Z,50.99
2019-05-29T14:55:43.101Z,51.63
2019-05-29T14:58:12.382Z,53.08
2019-05-29T15:00:41.647Z,54.08
2019-05-29T15:03:11.505Z,53.95
2019-05-29T15:05:41.001Z,53.12
2019-05-29T15:08:13.994Z,52.95
2019-05-29T15:10:43.915Z,52.69
2019-05-29T15:13:15.449Z,52.32
2019-05-29T15:15:46.708Z,52.52
2019-05-29T15:18:19.220Z,52.64
2019-05-29T15:20:49.935Z,51.52
2019-05-29T15:23:22.236Z,51.02
2019-05-29T15:25:53.522Z,50.69
2019-05-29T15:28:23.258Z,49.77
2019-05-29T15:30:52.537Z,50.94
2019-05-29T15:33:21.867Z,51.26
2019-05-29T15:35:51.130Z,51.42
2019-05-29T15:38:20.434Z,51.23
2019-05-29T15:40:49.729Z,51.28
2019-05-29T15:43:19.106Z,51.31
2019-05-29T15:45:48.485Z,50.73
2019-05-29T15:48:17.758Z,51.35
2019-05-29T15:50:47.096Z,52.66
2019-05-29T15:53:17.254Z,52.58
2019-05-29T15:55:46.731Z,53.06
2019-05-29T15:58:17.785Z,53.25
2019-05-29T16:00:47.566Z,53.86
2019-05-29T16:03:17.976Z,53.61
2019-05-29T16:05:47.291Z,53.04
2019-05-29T16:08:16.603Z,52.74
2019-05-29T16:10:45.940Z,53.27
2019-05-29T16:13:15.223Z,53.17
2019-05-29T16:15:44.561Z,52.34
2019-05-29T16:18:26.214Z,52.62
2019-05-29T16:20:45.111Z,51.59
2019-05-29T16:23:29.905Z,51.79
2019-05-29T16:25:45.553Z,51.78
2019-05-29T16:28:15.178Z,52.05
2019-05-29T16:30:44.609Z,52.08
2019-05-29T16:33:15.064Z,51.52
2019-05-29T16:35:44.675Z,50.87
2019-05-29T16:38:14.253Z,51.40
2019-05-29T16:40:45.101Z,50.95
2019-05-29T16:43:14.393Z,51.49
2019-05-29T16:45:43.666Z,51.61
2019-05-29T16:48:13.033Z,51.26
2019-05-29T16:50:42.704Z,50.73
2019-05-29T16:53:12.595Z,51.56
2019-05-29T16:55:53.394Z,51.90
2019-05-29T16:58:13.289Z,51.90
2019-05-29T17:00:42.558Z,51.89
2019-05-29T17:03:11.841Z,51.57
2019-05-29T17:05:41.125Z,51.00
2019-05-29T17:08:10.649Z,51.22
2019-05-29T17:10:39.991Z,51.17
2019-05-29T17:13:09.327Z,51.34
2019-05-29T17:15:38.593Z,49.49
2019-05-29T17:18:07.923Z,48.79
2019-05-29T17:20:45.291Z,48.56
2019-05-29T17:23:15.787Z,48.15
2019-05-29T17:25:47.489Z,47.76
2019-05-29T17:28:20.590Z,48.04
2019-05-29T17:30:47.794Z,47.63
2019-05-29T17:33:17.139Z,47.86
2019-05-29T17:35:46.534Z,48.32
2019-05-29T17:38:16.979Z,48.59
2019-05-29T17:40:46.368Z,48.58
2019-05-29T17:43:19.760Z,48.75
2019-05-29T17:45:48.207Z,49.22
2019-05-29T17:48:19.707Z,49.55
2019-05-29T17:50:49.352Z,49.82
2019-05-29T17:53:19.887Z,49.98
2019-05-29T17:55:49.608Z,50.19
2019-05-29T17:58:21.159Z,50.61
2019-05-29T18:00:50.325Z,50.63
2019-05-29T18:03:20.100Z,50.90
2019-05-29T18:05:50.878Z,50.93
2019-05-29T18:08:20.732Z,51.18
2019-05-29T18:10:50.138Z,51.49
2019-05-29T18:13:19.452Z,50.25
2019-05-29T18:15:48.752Z,50.70
2019-05-29T18:18:19.291Z,51.09
2019-05-29T18:20:48.665Z,51.42
2019-05-29T18:23:18.034Z,50.94
2019-05-29T18:25:47.328Z,51.14
2019-05-29T18:28:17.682Z,51.39
2019-05-29T18:30:47.170Z,51.63
2019-05-29T18:33:16.436Z,52.48
2019-05-29T18:35:45.774Z,52.21
2019-05-29T18:38:15.087Z,53.01
2019-05-29T18:40:44.501Z,52.93
2019-05-29T18:43:13.802Z,53.71
2019-05-29T18:45:43.112Z,54.26
2019-05-29T18:48:12.390Z,54.57
2019-05-29T18:50:44.383Z,54.47
2019-05-29T18:53:12.802Z,54.83
2019-05-29T18:55:43.882Z,54.91
2019-05-29T18:58:14.284Z,55.58
2019-05-29T19:00:43.752Z,56.27
2019-05-29T19:03:13.115Z,56.58
2019-05-29T19:05:43.922Z,56.83
2019-05-29T19:08:13.177Z,56.62
2019-05-29T19:10:42.453Z,56.63
2019-05-29T19:13:11.748Z,56.63
2019-05-29T19:15:41.043Z,57.02
2019-05-29T19:18:10.357Z,57.39
2019-05-29T19:20:39.627Z,57.11
2019-05-29T19:23:08.931Z,57.26
2019-05-29T19:25:38.189Z,57.71
2019-05-29T19:28:07.477Z,58.20
2019-05-29T19:30:36.923Z,58.69
2019-05-29T19:33:06.190Z,58.78
2019-05-29T19:35:35.483Z,58.83
2019-05-29T19:38:04.791Z,59.14
2019-05-29T19:40:34.555Z,60.06
2019-05-29T19:43:04.054Z,60.23
2019-05-29T19:45:34.531Z,61.28
2019-05-29T19:48:03.979Z,61.21
2019-05-29T19:50:33.299Z,61.52
2019-05-29T19:53:02.553Z,62.02
2019-05-29T19:55:36.216Z,62.17
2019-05-29T19:58:02.883Z,62.53
2019-05-29T20:00:32.231Z,62.40
2019-05-29T20:03:01.498Z,63.03
2019-05-29T20:05:32.806Z,63.31
2019-05-29T20:08:01.783Z,62.98
2019-05-29T20:10:31.422Z,63.19
2019-05-29T20:13:02.204Z,63.29
2019-05-29T20:15:31.942Z,63.47
2019-05-29T20:18:02.303Z,63.79
2019-05-29T20:20:32.387Z,63.79
2019-05-29T20:23:01.970Z,63.90
2019-05-29T20:25:31.362Z,64.28
2019-05-29T20:28:06.447Z,64.93
2019-05-29T20:30:32.305Z,65.08
2019-05-29T20:33:03.298Z,65.36
2019-05-29T20:35:36.873Z,65.95
2019-05-29T20:38:07.070Z,66.17
2019-05-29T20:40:37.330Z,66.69
2019-05-29T20:43:06.930Z,67.26
2019-05-29T20:45:37.395Z,67.19
2019-05-29T20:48:07.216Z,67.40
2019-05-29T20:50:36.992Z,66.81
2019-05-29T20:53:06.514Z,66.84
2019-05-29T20:55:37.727Z,65.29
2019-05-29T20:58:23.471Z,67.30
2019-05-29T21:00:38.498Z,67.80
2019-05-29T21:03:08.017Z,68.03
2019-05-29T21:05:37.299Z,68.22
2019-05-29T21:08:06.931Z,68.17
2019-05-29T21:10:37.211Z,68.80
2019-05-29T21:13:07.817Z,68.83
2019-05-29T21:15:37.574Z,68.51
2019-05-29T21:18:07.008Z,69.51
2019-05-29T21:20:36.410Z,69.32
2019-05-29T21:23:05.671Z,70.21
2019-05-29T21:25:35.117Z,69.67
2019-05-29T21:28:04.868Z,70.11
2019-05-29T21:30:35.525Z,70.11
2019-05-29T21:33:04.950Z,69.94
2019-05-29T21:35:34.320Z,70.46
2019-05-29T21:38:03.689Z,70.66
2019-05-29T21:40:34.736Z,70.70
2019-05-29T21:43:04.018Z,71.03
2019-05-29T21:45:33.316Z,71.17
2019-05-29T21:48:02.650Z,70.66
2019-05-29T21:50:32.044Z,70.50
2019-05-29T21:53:01.357Z,70.80
2019-05-29T21:55:30.618Z,70.50
2019-05-29T21:57:59.938Z,71.19
2019-05-29T22:00:35.501Z,71.30
2019-05-29T22:03:05.822Z,72.16
2019-05-29T22:05:35.101Z,71.97
2019-05-29T22:08:04.828Z,71.76
2019-05-29T22:10:34.096Z,71.65
2019-05-29T22:13:03.396Z,71.34
2019-05-29T22:15:32.673Z,71.68
2019-05-29T22:18:02.058Z,72.84
2019-05-29T22:20:31.377Z,73.17
2019-05-29T22:23:02.537Z,73.66
2019-05-29T22:25:34.337Z,74.14
2019-05-29T22:28:02.647Z,73.47
2019-05-29T22:30:31.928Z,73.90
2019-05-29T22:33:01.886Z,73.54
2019-05-29T22:35:31.363Z,73.68
2019-05-29T22:38:01.851Z,73.40
2019-05-29T22:40:31.336Z,73.15
2019-05-29T22:43:01.806Z,72.97
2019-05-29T22:45:31.203Z,73.81
2019-05-29T22:48:02.287Z,74.20
2019-05-29T22:50:32.266Z,73.75
2019-05-29T22:53:02.101Z,73.63
2019-05-29T22:55:31.521Z,73.21
2019-05-29T22:58:02.116Z,73.29
2019-05-29T23:00:31.701Z,73.21
2019-05-29T23:03:02.355Z,73.12
2019-05-29T23:05:31.751Z,72.66
2019-05-29T23:08:02.413Z,72.08
2019-05-29T23:10:32.027Z,71.81
2019-05-29T23:13:04.370Z,71.17
2019-05-29T23:15:33.405Z,71.35
2019-05-29T23:18:02.883Z,71.53
2019-05-29T23:20:32.370Z,71.62
2019-05-29T23:23:02.782Z,71.88
2019-05-29T23:25:32.225Z,71.71
2019-05-29T23:28:02.835Z,72.59
2019-05-29T23:30:32.587Z,73.05
2019-05-29T23:33:03.254Z,73.29
2019-05-29T23:35:32.750Z,73.98
2019-05-29T23:38:03.339Z,73.79
2019-05-29T23:40:32.880Z,74.06
2019-05-29T23:43:02.454Z,74.31
2019-05-29T23:45:32.881Z,74.42
2019-05-29T23:48:02.186Z,74.43
2019-05-29T23:50:31.485Z,74.42
2019-05-29T23:53:01.867Z,74.61
2019-05-29T23:55:31.229Z,74.97
2019-05-29T23:58:00.504Z,75.30
